sensor_id;sensor_type;location;lat;lon;timestamp;temperature;humidity
64939;DHT22;51453;47.738;7.420;2024-02-26T00:00:35;6.60;99.90
64939;DHT22;51453;47.738;7.420;2024-02-26T00:03:01;6.60;99.90
64939;DHT22;51453;47.738;7.420;2024-02-26T00:05:28;6.70;99.90
64939;DHT22;51453;47.738;7.420;2024-02-26T00:07:54;6.60;99.90
64939;DHT22;51453;47.738;7.420;2024-02-26T00:10:19;6.60;99.90
64939;DHT22;51453;47.738;7.420;2024-02-26T00:12:46;6.50;99.90
64939;DHT22;51453;47.738;7.420;2024-02-26T00:15:12;6.50;99.90
64939;DHT22;51453;47.738;7.420;2024-02-26T00:17:38;6.60;99.90
64939;DHT22;51453;47.738;7.420;2024-02-26T00:20:04;6.60;99.90
64939;DHT22;51453;47.738;7.420;2024-02-26T00:22:33;6.50;99.90
64939;DHT22;51453;47.738;7.420;2024-02-26T00:24:59;6.50;99.90
64939;DHT22;51453;47.738;7.420;2024-02-26T00:27:25;6.50;99.90
64939;DHT22;51453;47.738;7.420;2024-02-26T00:29:50;6.50;99.90
64939;DHT22;51453;47.738;7.420;2024-02-26T00:32:16;6.50;99.90
64939;DHT22;51453;47.738;7.420;2024-02-26T00:34:42;6.50;99.90
64939;DHT22;51453;47.738;7.420;2024-02-26T00:37:07;6.40;99.90
64939;DHT22;51453;47.738;7.420;2024-02-26T00:39:33;6.40;99.90
64939;DHT22;51453;47.738;7.420;2024-02-26T00:41:58;6.40;99.90
64939;DHT22;51453;47.738;7.420;2024-02-26T00:44:24;6.40;99.90
64939;DHT22;51453;47.738;7.420;2024-02-26T00:46:50;6.40;99.90
64939;DHT22;51453;47.738;7.420;2024-02-26T00:49:15;6.40;99.90
64939;DHT22;51453;47.738;7.420;2024-02-26T00:51:41;6.40;99.90
64939;DHT22;51453;47.738;7.420;2024-02-26T00:54:07;6.40;99.90
64939;DHT22;51453;47.738;7.420;2024-02-26T00:56:32;6.40;99.90
64939;DHT22;51453;47.738;7.420;2024-02-26T00:58:58;6.40;99.90
64939;DHT22;51453;47.738;7.420;2024-02-26T01:01:24;6.30;99.90
64939;DHT22;51453;47.738;7.420;2024-02-26T01:03:50;6.40;99.90
64939;DHT22;51453;47.738;7.420;2024-02-26T01:06:16;6.40;99.90
64939;DHT22;51453;47.738;7.420;2024-02-26T01:08:41;6.40;99.90
64939;DHT22;51453;47.738;7.420;2024-02-26T01:11:07;6.40;99.90
64939;DHT22;51453;47.738;7.420;2024-02-26T01:13:33;6.40;99.90
64939;DHT22;51453;47.738;7.420;2024-02-26T01:15:58;6.40;99.90
64939;DHT22;51453;47.738;7.420;2024-02-26T01:18:26;6.40;99.90
64939;DHT22;51453;47.738;7.420;2024-02-26T01:20:51;6.40;99.90
64939;DHT22;51453;47.738;7.420;2024-02-26T01:23:20;6.40;99.90
64939;DHT22;51453;47.738;7.420;2024-02-26T01:25:45;6.40;99.90
64939;DHT22;51453;47.738;7.420;2024-02-26T01:28:11;6.40;99.90
64939;DHT22;51453;47.738;7.420;2024-02-26T01:30:36;6.40;99.90
64939;DHT22;51453;47.738;7.420;2024-02-26T01:33:02;6.40;99.90
64939;DHT22;51453;47.738;7.420;2024-02-26T01:35:29;6.40;99.90
64939;DHT22;51453;47.738;7.420;2024-02-26T01:37:55;6.40;99.90
64939;DHT22;51453;47.738;7.420;2024-02-26T01:40:22;6.40;99.90
64939;DHT22;51453;47.738;7.420;2024-02-26T01:42:47;6.40;99.90
64939;DHT22;51453;47.738;7.420;2024-02-26T01:45:17;6.40;99.90
64939;DHT22;51453;47.738;7.420;2024-02-26T01:47:54;6.50;99.90
64939;DHT22;51453;47.738;7.420;2024-02-26T01:50:21;6.40;99.90
64939;DHT22;51453;47.738;7.420;2024-02-26T01:52:49;6.40;99.90
64939;DHT22;51453;47.738;7.420;2024-02-26T01:55:15;6.40;99.90
64939;DHT22;51453;47.738;7.420;2024-02-26T01:57:43;6.30;99.90
64939;DHT22;51453;47.738;7.420;2024-02-26T02:00:09;6.30;99.90
64939;DHT22;51453;47.738;7.420;2024-02-26T02:02:35;6.30;99.90
64939;DHT22;51453;47.738;7.420;2024-02-26T02:05:02;6.30;99.90
64939;DHT22;51453;47.738;7.420;2024-02-26T02:07:28;6.30;99.90
64939;DHT22;51453;47.738;7.420;2024-02-26T02:09:54;6.30;99.90
64939;DHT22;51453;47.738;7.420;2024-02-26T02:12:21;6.20;99.90
64939;DHT22;51453;47.738;7.420;2024-02-26T02:14:47;6.20;99.90
64939;DHT22;51453;47.738;7.420;2024-02-26T02:17:13;6.30;99.90
64939;DHT22;51453;47.738;7.420;2024-02-26T02:19:38;6.30;99.90
64939;DHT22;51453;47.738;7.420;2024-02-26T02:22:04;6.20;99.90
64939;DHT22;51453;47.738;7.420;2024-02-26T02:24:30;6.20;99.90
64939;DHT22;51453;47.738;7.420;2024-02-26T02:26:55;6.20;99.90
64939;DHT22;51453;47.738;7.420;2024-02-26T02:29:21;6.20;99.90
64939;DHT22;51453;47.738;7.420;2024-02-26T02:31:47;6.20;99.90
64939;DHT22;51453;47.738;7.420;2024-02-26T02:34:13;6.20;99.90
64939;DHT22;51453;47.738;7.420;2024-02-26T02:36:52;6.10;99.90
64939;DHT22;51453;47.738;7.420;2024-02-26T02:39:18;6.20;99.90
64939;DHT22;51453;47.738;7.420;2024-02-26T02:41:43;6.20;99.90
64939;DHT22;51453;47.738;7.420;2024-02-26T02:44:09;6.20;99.90
64939;DHT22;51453;47.738;7.420;2024-02-26T02:46:35;6.20;99.90
64939;DHT22;51453;47.738;7.420;2024-02-26T02:49:01;6.10;99.90
64939;DHT22;51453;47.738;7.420;2024-02-26T02:51:27;6.10;99.90
64939;DHT22;51453;47.738;7.420;2024-02-26T02:53:52;6.10;99.90
64939;DHT22;51453;47.738;7.420;2024-02-26T02:56:19;6.20;99.90
64939;DHT22;51453;47.738;7.420;2024-02-26T02:58:44;6.10;99.90
64939;DHT22;51453;47.738;7.420;2024-02-26T03:01:10;6.10;99.90
64939;DHT22;51453;47.738;7.420;2024-02-26T03:03:36;6.10;99.90
64939;DHT22;51453;47.738;7.420;2024-02-26T03:06:03;6.10;99.90
64939;DHT22;51453;47.738;7.420;2024-02-26T03:08:29;6.10;99.90
64939;DHT22;51453;47.738;7.420;2024-02-26T03:10:54;6.10;99.90
64939;DHT22;51453;47.738;7.420;2024-02-26T03:13:20;6.10;99.90
64939;DHT22;51453;47.738;7.420;2024-02-26T03:15:47;6.10;99.90
64939;DHT22;51453;47.738;7.420;2024-02-26T03:18:13;6.00;99.90
64939;DHT22;51453;47.738;7.420;2024-02-26T03:20:38;6.10;99.90
64939;DHT22;51453;47.738;7.420;2024-02-26T03:23:04;6.00;99.90
64939;DHT22;51453;47.738;7.420;2024-02-26T03:25:30;6.00;99.90
64939;DHT22;51453;47.738;7.420;2024-02-26T03:27:55;6.00;99.90
64939;DHT22;51453;47.738;7.420;2024-02-26T03:30:21;6.00;99.90
64939;DHT22;51453;47.738;7.420;2024-02-26T03:32:46;6.00;99.90
64939;DHT22;51453;47.738;7.420;2024-02-26T03:35:13;6.10;99.90
64939;DHT22;51453;47.738;7.420;2024-02-26T03:37:38;6.00;99.90
64939;DHT22;51453;47.738;7.420;2024-02-26T03:40:05;6.00;99.90
64939;DHT22;51453;47.738;7.420;2024-02-26T03:42:32;6.00;99.90
64939;DHT22;51453;47.738;7.420;2024-02-26T03:44:57;6.00;99.90
64939;DHT22;51453;47.738;7.420;2024-02-26T03:47:23;6.00;99.90
64939;DHT22;51453;47.738;7.420;2024-02-26T03:49:49;6.00;99.90
64939;DHT22;51453;47.738;7.420;2024-02-26T03:52:14;6.00;99.90
64939;DHT22;51453;47.738;7.420;2024-02-26T03:54:40;6.10;99.90
64939;DHT22;51453;47.738;7.420;2024-02-26T03:57:06;6.00;99.90
64939;DHT22;51453;47.738;7.420;2024-02-26T03:59:31;6.00;99.90
64939;DHT22;51453;47.738;7.420;2024-02-26T04:01:57;6.00;99.90
64939;DHT22;51453;47.738;7.420;2024-02-26T04:04:22;6.00;99.90
64939;DHT22;51453;47.738;7.420;2024-02-26T04:06:48;6.00;99.90
64939;DHT22;51453;47.738;7.420;2024-02-26T04:09:14;6.00;99.90
64939;DHT22;51453;47.738;7.420;2024-02-26T04:11:40;6.00;99.90
64939;DHT22;51453;47.738;7.420;2024-02-26T04:14:06;6.00;99.90
64939;DHT22;51453;47.738;7.420;2024-02-26T04:16:37;5.90;99.90
64939;DHT22;51453;47.738;7.420;2024-02-26T04:19:02;5.90;99.90
64939;DHT22;51453;47.738;7.420;2024-02-26T04:21:28;6.00;99.90
64939;DHT22;51453;47.738;7.420;2024-02-26T04:23:53;5.90;99.90
64939;DHT22;51453;47.738;7.420;2024-02-26T04:26:21;6.00;99.90
64939;DHT22;51453;47.738;7.420;2024-02-26T04:28:47;6.00;99.90
64939;DHT22;51453;47.738;7.420;2024-02-26T04:31:13;6.00;99.90
64939;DHT22;51453;47.738;7.420;2024-02-26T04:33:38;6.00;99.90
64939;DHT22;51453;47.738;7.420;2024-02-26T04:36:04;5.90;99.90
64939;DHT22;51453;47.738;7.420;2024-02-26T04:38:30;6.00;99.90
64939;DHT22;51453;47.738;7.420;2024-02-26T04:40:56;6.00;99.90
64939;DHT22;51453;47.738;7.420;2024-02-26T04:43:21;6.00;99.90
64939;DHT22;51453;47.738;7.420;2024-02-26T04:45:47;6.10;99.90
64939;DHT22;51453;47.738;7.420;2024-02-26T04:48:13;6.10;99.90
64939;DHT22;51453;47.738;7.420;2024-02-26T04:50:39;6.10;99.90
64939;DHT22;51453;47.738;7.420;2024-02-26T04:53:04;6.20;99.90
64939;DHT22;51453;47.738;7.420;2024-02-26T04:55:30;6.30;99.90
64939;DHT22;51453;47.738;7.420;2024-02-26T04:57:55;6.20;99.90
64939;DHT22;51453;47.738;7.420;2024-02-26T05:00:21;6.10;99.90
64939;DHT22;51453;47.738;7.420;2024-02-26T05:02:47;6.10;99.90
64939;DHT22;51453;47.738;7.420;2024-02-26T05:05:13;6.10;99.90
64939;DHT22;51453;47.738;7.420;2024-02-26T05:07:42;6.10;99.90
64939;DHT22;51453;47.738;7.420;2024-02-26T05:10:09;6.20;99.90
64939;DHT22;51453;47.738;7.420;2024-02-26T05:12:35;6.20;99.90
64939;DHT22;51453;47.738;7.420;2024-02-26T05:15:02;6.20;99.90
64939;DHT22;51453;47.738;7.420;2024-02-26T05:17:28;6.20;99.90
64939;DHT22;51453;47.738;7.420;2024-02-26T05:19:54;6.20;99.90
64939;DHT22;51453;47.738;7.420;2024-02-26T05:22:19;6.30;99.90
64939;DHT22;51453;47.738;7.420;2024-02-26T05:24:45;6.30;99.90
64939;DHT22;51453;47.738;7.420;2024-02-26T05:27:11;6.20;99.90
64939;DHT22;51453;47.738;7.420;2024-02-26T05:29:37;6.30;99.90
64939;DHT22;51453;47.738;7.420;2024-02-26T05:32:04;6.20;99.90
64939;DHT22;51453;47.738;7.420;2024-02-26T05:34:30;6.10;99.90
64939;DHT22;51453;47.738;7.420;2024-02-26T05:36:56;6.10;99.90
64939;DHT22;51453;47.738;7.420;2024-02-26T05:39:22;6.10;99.90
64939;DHT22;51453;47.738;7.420;2024-02-26T05:41:48;6.10;99.90
64939;DHT22;51453;47.738;7.420;2024-02-26T05:44:14;6.00;99.90
64939;DHT22;51453;47.738;7.420;2024-02-26T05:46:41;6.10;99.90
64939;DHT22;51453;47.738;7.420;2024-02-26T05:49:07;6.10;99.90
64939;DHT22;51453;47.738;7.420;2024-02-26T05:51:33;6.10;99.90
64939;DHT22;51453;47.738;7.420;2024-02-26T05:53:58;6.10;99.90
64939;DHT22;51453;47.738;7.420;2024-02-26T05:56:24;6.10;99.90
64939;DHT22;51453;47.738;7.420;2024-02-26T05:58:50;6.20;99.90
64939;DHT22;51453;47.738;7.420;2024-02-26T06:01:17;6.20;99.90
64939;DHT22;51453;47.738;7.420;2024-02-26T06:03:44;6.20;99.90
64939;DHT22;51453;47.738;7.420;2024-02-26T06:06:11;6.20;99.90
64939;DHT22;51453;47.738;7.420;2024-02-26T06:08:36;6.20;99.90
64939;DHT22;51453;47.738;7.420;2024-02-26T06:11:08;6.20;99.90
64939;DHT22;51453;47.738;7.420;2024-02-26T06:13:35;6.20;99.90
64939;DHT22;51453;47.738;7.420;2024-02-26T06:16:04;6.20;99.90
64939;DHT22;51453;47.738;7.420;2024-02-26T06:18:30;6.20;99.90
64939;DHT22;51453;47.738;7.420;2024-02-26T06:20:57;6.20;99.90
64939;DHT22;51453;47.738;7.420;2024-02-26T06:23:23;6.20;99.90
64939;DHT22;51453;47.738;7.420;2024-02-26T06:25:48;6.20;99.90
64939;DHT22;51453;47.738;7.420;2024-02-26T06:28:14;6.30;99.90
64939;DHT22;51453;47.738;7.420;2024-02-26T06:30:40;6.30;99.90
64939;DHT22;51453;47.738;7.420;2024-02-26T06:33:05;6.30;99.90
64939;DHT22;51453;47.738;7.420;2024-02-26T06:35:32;6.30;99.90
64939;DHT22;51453;47.738;7.420;2024-02-26T06:37:58;6.30;99.90
64939;DHT22;51453;47.738;7.420;2024-02-26T06:40:23;6.30;99.90
64939;DHT22;51453;47.738;7.420;2024-02-26T06:42:49;6.30;99.90
64939;DHT22;51453;47.738;7.420;2024-02-26T06:45:15;6.30;99.90
64939;DHT22;51453;47.738;7.420;2024-02-26T06:47:41;6.40;99.90
64939;DHT22;51453;47.738;7.420;2024-02-26T06:50:08;6.40;99.90
64939;DHT22;51453;47.738;7.420;2024-02-26T06:52:35;6.50;99.90
64939;DHT22;51453;47.738;7.420;2024-02-26T06:55:01;6.50;99.90
64939;DHT22;51453;47.738;7.420;2024-02-26T06:57:27;6.40;99.90
64939;DHT22;51453;47.738;7.420;2024-02-26T06:59:52;6.40;99.90
64939;DHT22;51453;47.738;7.420;2024-02-26T07:02:18;6.50;99.90
64939;DHT22;51453;47.738;7.420;2024-02-26T07:04:43;6.50;99.90
64939;DHT22;51453;47.738;7.420;2024-02-26T07:07:09;6.60;99.90
64939;DHT22;51453;47.738;7.420;2024-02-26T07:09:36;6.60;99.90
64939;DHT22;51453;47.738;7.420;2024-02-26T07:12:02;6.70;99.90
64939;DHT22;51453;47.738;7.420;2024-02-26T07:14:28;6.70;99.90
64939;DHT22;51453;47.738;7.420;2024-02-26T07:16:53;6.80;99.90
64939;DHT22;51453;47.738;7.420;2024-02-26T07:19:19;6.90;99.90
64939;DHT22;51453;47.738;7.420;2024-02-26T07:21:44;6.90;99.90
64939;DHT22;51453;47.738;7.420;2024-02-26T07:24:10;7.00;99.90
64939;DHT22;51453;47.738;7.420;2024-02-26T07:26:36;7.00;99.90
64939;DHT22;51453;47.738;7.420;2024-02-26T07:29:01;7.10;99.90
64939;DHT22;51453;47.738;7.420;2024-02-26T07:31:27;7.10;99.90
64939;DHT22;51453;47.738;7.420;2024-02-26T07:33:53;7.20;99.90
64939;DHT22;51453;47.738;7.420;2024-02-26T07:36:19;7.20;99.90
64939;DHT22;51453;47.738;7.420;2024-02-26T07:38:45;7.20;99.90
64939;DHT22;51453;47.738;7.420;2024-02-26T07:41:11;7.30;99.90
64939;DHT22;51453;47.738;7.420;2024-02-26T07:43:37;7.30;99.90
64939;DHT22;51453;47.738;7.420;2024-02-26T07:46:03;7.40;99.90
64939;DHT22;51453;47.738;7.420;2024-02-26T07:48:28;7.60;99.90
64939;DHT22;51453;47.738;7.420;2024-02-26T07:50:54;7.70;99.90
64939;DHT22;51453;47.738;7.420;2024-02-26T07:53:20;7.70;99.90
64939;DHT22;51453;47.738;7.420;2024-02-26T07:55:45;7.70;99.90
64939;DHT22;51453;47.738;7.420;2024-02-26T07:58:11;7.70;99.90
64939;DHT22;51453;47.738;7.420;2024-02-26T08:00:37;7.70;99.90
64939;DHT22;51453;47.738;7.420;2024-02-26T08:03:02;7.80;99.90
64939;DHT22;51453;47.738;7.420;2024-02-26T08:05:28;7.80;99.90
64939;DHT22;51453;47.738;7.420;2024-02-26T08:07:54;7.90;99.90
64939;DHT22;51453;47.738;7.420;2024-02-26T08:10:20;7.90;99.90
64939;DHT22;51453;47.738;7.420;2024-02-26T08:12:46;8.00;99.90
64939;DHT22;51453;47.738;7.420;2024-02-26T08:15:11;8.00;99.90
64939;DHT22;51453;47.738;7.420;2024-02-26T08:17:37;8.10;99.90
64939;DHT22;51453;47.738;7.420;2024-02-26T08:20:08;8.00;99.90
64939;DHT22;51453;47.738;7.420;2024-02-26T08:22:34;8.10;99.90
64939;DHT22;51453;47.738;7.420;2024-02-26T08:24:59;8.40;99.90
64939;DHT22;51453;47.738;7.420;2024-02-26T08:27:25;8.50;99.90
64939;DHT22;51453;47.738;7.420;2024-02-26T08:29:51;8.50;99.90
64939;DHT22;51453;47.738;7.420;2024-02-26T08:32:17;8.50;99.90
64939;DHT22;51453;47.738;7.420;2024-02-26T08:34:43;8.50;99.90
64939;DHT22;51453;47.738;7.420;2024-02-26T08:37:11;8.40;99.90
64939;DHT22;51453;47.738;7.420;2024-02-26T08:39:37;8.30;99.90
64939;DHT22;51453;47.738;7.420;2024-02-26T08:42:03;8.20;99.90
64939;DHT22;51453;47.738;7.420;2024-02-26T08:44:29;8.20;99.90
64939;DHT22;51453;47.738;7.420;2024-02-26T08:46:55;8.20;99.90
64939;DHT22;51453;47.738;7.420;2024-02-26T08:49:20;8.20;99.90
64939;DHT22;51453;47.738;7.420;2024-02-26T08:51:48;8.30;99.90
64939;DHT22;51453;47.738;7.420;2024-02-26T08:54:14;8.30;99.90
64939;DHT22;51453;47.738;7.420;2024-02-26T08:56:39;8.30;99.90
64939;DHT22;51453;47.738;7.420;2024-02-26T08:59:05;8.20;99.90
64939;DHT22;51453;47.738;7.420;2024-02-26T09:01:34;8.30;99.90
64939;DHT22;51453;47.738;7.420;2024-02-26T09:03:59;8.30;99.90
64939;DHT22;51453;47.738;7.420;2024-02-26T09:06:25;8.20;99.90
64939;DHT22;51453;47.738;7.420;2024-02-26T09:08:51;8.20;99.90
64939;DHT22;51453;47.738;7.420;2024-02-26T09:11:16;8.20;99.90
64939;DHT22;51453;47.738;7.420;2024-02-26T09:13:42;8.20;99.90
64939;DHT22;51453;47.738;7.420;2024-02-26T09:16:08;8.30;99.90
64939;DHT22;51453;47.738;7.420;2024-02-26T09:18:33;8.40;99.90
64939;DHT22;51453;47.738;7.420;2024-02-26T09:20:59;8.40;99.90
64939;DHT22;51453;47.738;7.420;2024-02-26T09:23:24;8.40;99.90
64939;DHT22;51453;47.738;7.420;2024-02-26T09:25:50;8.40;99.90
64939;DHT22;51453;47.738;7.420;2024-02-26T09:28:16;8.50;99.90
64939;DHT22;51453;47.738;7.420;2024-02-26T09:30:44;8.50;99.90
64939;DHT22;51453;47.738;7.420;2024-02-26T09:33:10;8.50;99.90
64939;DHT22;51453;47.738;7.420;2024-02-26T09:35:36;8.60;99.90
64939;DHT22;51453;47.738;7.420;2024-02-26T09:38:01;8.70;99.90
64939;DHT22;51453;47.738;7.420;2024-02-26T09:40:27;8.80;99.90
64939;DHT22;51453;47.738;7.420;2024-02-26T09:42:59;8.90;99.90
64939;DHT22;51453;47.738;7.420;2024-02-26T09:45:26;9.00;99.90
64939;DHT22;51453;47.738;7.420;2024-02-26T09:47:55;9.00;99.90
64939;DHT22;51453;47.738;7.420;2024-02-26T09:50:22;9.10;99.90
64939;DHT22;51453;47.738;7.420;2024-02-26T09:52:48;9.20;99.90
64939;DHT22;51453;47.738;7.420;2024-02-26T09:55:15;9.30;99.90
64939;DHT22;51453;47.738;7.420;2024-02-26T09:57:45;9.40;99.90
64939;DHT22;51453;47.738;7.420;2024-02-26T10:00:14;9.50;99.90
64939;DHT22;51453;47.738;7.420;2024-02-26T10:02:41;9.50;99.90
64939;DHT22;51453;47.738;7.420;2024-02-26T10:05:10;9.50;99.90
64939;DHT22;51453;47.738;7.420;2024-02-26T10:07:38;9.50;99.90
64939;DHT22;51453;47.738;7.420;2024-02-26T10:10:03;9.60;99.90
64939;DHT22;51453;47.738;7.420;2024-02-26T10:12:30;9.60;99.90
64939;DHT22;51453;47.738;7.420;2024-02-26T10:14:56;9.70;99.90
64939;DHT22;51453;47.738;7.420;2024-02-26T10:17:22;9.70;99.90
64939;DHT22;51453;47.738;7.420;2024-02-26T10:19:49;9.70;99.90
64939;DHT22;51453;47.738;7.420;2024-02-26T10:22:17;9.60;99.90
64939;DHT22;51453;47.738;7.420;2024-02-26T10:24:42;9.70;99.90
64939;DHT22;51453;47.738;7.420;2024-02-26T10:27:08;9.70;99.90
64939;DHT22;51453;47.738;7.420;2024-02-26T10:29:34;9.90;99.90
64939;DHT22;51453;47.738;7.420;2024-02-26T10:32:00;9.90;99.90
64939;DHT22;51453;47.738;7.420;2024-02-26T10:34:26;10.00;99.90
64939;DHT22;51453;47.738;7.420;2024-02-26T10:36:53;9.90;99.90
64939;DHT22;51453;47.738;7.420;2024-02-26T10:39:19;9.90;99.90
64939;DHT22;51453;47.738;7.420;2024-02-26T10:41:45;9.90;99.90
64939;DHT22;51453;47.738;7.420;2024-02-26T10:44:11;9.80;99.90
64939;DHT22;51453;47.738;7.420;2024-02-26T10:46:38;9.90;99.90
64939;DHT22;51453;47.738;7.420;2024-02-26T10:49:04;10.10;99.90
64939;DHT22;51453;47.738;7.420;2024-02-26T10:51:31;10.10;99.90
64939;DHT22;51453;47.738;7.420;2024-02-26T10:53:59;10.20;99.90
64939;DHT22;51453;47.738;7.420;2024-02-26T10:56:30;10.30;99.90
64939;DHT22;51453;47.738;7.420;2024-02-26T10:59:00;10.50;99.90
64939;DHT22;51453;47.738;7.420;2024-02-26T11:01:27;10.60;99.90
64939;DHT22;51453;47.738;7.420;2024-02-26T11:03:58;10.70;99.90
64939;DHT22;51453;47.738;7.420;2024-02-26T11:06:26;10.80;99.90
64939;DHT22;51453;47.738;7.420;2024-02-26T11:08:53;11.00;99.90
64939;DHT22;51453;47.738;7.420;2024-02-26T11:11:20;10.90;99.90
64939;DHT22;51453;47.738;7.420;2024-02-26T11:13:47;10.90;99.90
64939;DHT22;51453;47.738;7.420;2024-02-26T11:16:21;11.00;99.90
64939;DHT22;51453;47.738;7.420;2024-02-26T11:18:47;10.90;99.90
64939;DHT22;51453;47.738;7.420;2024-02-26T11:21:15;11.00;99.90
64939;DHT22;51453;47.738;7.420;2024-02-26T11:23:42;10.80;99.90
64939;DHT22;51453;47.738;7.420;2024-02-26T11:26:09;10.90;99.90
64939;DHT22;51453;47.738;7.420;2024-02-26T11:28:37;10.80;99.90
64939;DHT22;51453;47.738;7.420;2024-02-26T11:31:04;10.90;99.90
64939;DHT22;51453;47.738;7.420;2024-02-26T11:33:30;11.00;99.90
64939;DHT22;51453;47.738;7.420;2024-02-26T11:35:56;11.00;99.90
64939;DHT22;51453;47.738;7.420;2024-02-26T11:38:25;10.90;99.90
64939;DHT22;51453;47.738;7.420;2024-02-26T11:40:53;11.00;99.90
64939;DHT22;51453;47.738;7.420;2024-02-26T11:46:25;11.40;99.90
64939;DHT22;51453;47.738;7.420;2024-02-26T11:48:50;11.50;99.90
64939;DHT22;51453;47.738;7.420;2024-02-26T11:51:16;11.60;99.90
64939;DHT22;51453;47.738;7.420;2024-02-26T11:53:47;11.70;99.90
64939;DHT22;51453;47.738;7.420;2024-02-26T11:58:42;11.90;99.90
64939;DHT22;51453;47.738;7.420;2024-02-26T12:04:04;12.30;99.90
64939;DHT22;51453;47.738;7.420;2024-02-26T12:06:30;12.30;99.90
64939;DHT22;51453;47.738;7.420;2024-02-26T12:08:56;12.40;99.90
64939;DHT22;51453;47.738;7.420;2024-02-26T12:11:22;12.40;99.90
64939;DHT22;51453;47.738;7.420;2024-02-26T12:13:48;12.50;99.90
64939;DHT22;51453;47.738;7.420;2024-02-26T12:16:55;12.60;99.90
64939;DHT22;51453;47.738;7.420;2024-02-26T12:19:21;12.50;99.90
64939;DHT22;51453;47.738;7.420;2024-02-26T12:21:52;12.50;99.90
64939;DHT22;51453;47.738;7.420;2024-02-26T12:24:19;12.60;99.90
64939;DHT22;51453;47.738;7.420;2024-02-26T12:26:45;12.70;99.90
64939;DHT22;51453;47.738;7.420;2024-02-26T12:29:12;12.70;99.90
64939;DHT22;51453;47.738;7.420;2024-02-26T12:31:39;12.80;99.90
64939;DHT22;51453;47.738;7.420;2024-02-26T12:34:06;12.90;99.90
64939;DHT22;51453;47.738;7.420;2024-02-26T12:36:36;12.90;99.90
64939;DHT22;51453;47.738;7.420;2024-02-26T12:39:03;12.90;99.90
64939;DHT22;51453;47.738;7.420;2024-02-26T12:41:31;12.90;99.90
64939;DHT22;51453;47.738;7.420;2024-02-26T12:43:57;12.90;99.90
64939;DHT22;51453;47.738;7.420;2024-02-26T12:46:24;12.90;99.90
64939;DHT22;51453;47.738;7.420;2024-02-26T12:48:49;12.90;99.90
64939;DHT22;51453;47.738;7.420;2024-02-26T12:51:16;12.90;99.90
64939;DHT22;51453;47.738;7.420;2024-02-26T12:53:44;12.90;99.90
64939;DHT22;51453;47.738;7.420;2024-02-26T12:56:11;12.90;99.90
64939;DHT22;51453;47.738;7.420;2024-02-26T12:58:40;12.70;99.90
64939;DHT22;51453;47.738;7.420;2024-02-26T13:01:08;12.70;99.90
64939;DHT22;51453;47.738;7.420;2024-02-26T13:03:39;12.70;99.90
64939;DHT22;51453;47.738;7.420;2024-02-26T13:06:05;12.70;99.90
64939;DHT22;51453;47.738;7.420;2024-02-26T13:08:32;12.80;99.90
64939;DHT22;51453;47.738;7.420;2024-02-26T13:10:59;12.80;99.90
64939;DHT22;51453;47.738;7.420;2024-02-26T13:13:25;12.90;99.90
64939;DHT22;51453;47.738;7.420;2024-02-26T13:16:07;13.00;99.90
64939;DHT22;51453;47.738;7.420;2024-02-26T13:18:34;13.00;99.90
64939;DHT22;51453;47.738;7.420;2024-02-26T13:21:13;12.90;99.90
64939;DHT22;51453;47.738;7.420;2024-02-26T13:23:40;12.80;99.90
64939;DHT22;51453;47.738;7.420;2024-02-26T13:26:07;12.90;99.90
64939;DHT22;51453;47.738;7.420;2024-02-26T13:28:34;12.90;99.90
64939;DHT22;51453;47.738;7.420;2024-02-26T13:31:00;12.80;99.90
64939;DHT22;51453;47.738;7.420;2024-02-26T13:33:28;12.90;99.90
64939;DHT22;51453;47.738;7.420;2024-02-26T13:35:57;12.90;99.90
64939;DHT22;51453;47.738;7.420;2024-02-26T13:38:24;12.90;99.90
64939;DHT22;51453;47.738;7.420;2024-02-26T13:40:51;13.00;99.90
64939;DHT22;51453;47.738;7.420;2024-02-26T13:43:18;13.00;99.90
64939;DHT22;51453;47.738;7.420;2024-02-26T13:45:44;13.00;99.90
64939;DHT22;51453;47.738;7.420;2024-02-26T13:48:11;13.10;99.90
64939;DHT22;51453;47.738;7.420;2024-02-26T13:50:41;13.00;99.90
64939;DHT22;51453;47.738;7.420;2024-02-26T13:53:09;13.00;99.90
64939;DHT22;51453;47.738;7.420;2024-02-26T13:55:34;12.90;99.90
64939;DHT22;51453;47.738;7.420;2024-02-26T13:58:01;12.90;99.90
64939;DHT22;51453;47.738;7.420;2024-02-26T14:00:27;12.90;99.90
64939;DHT22;51453;47.738;7.420;2024-02-26T14:02:54;12.90;99.90
64939;DHT22;51453;47.738;7.420;2024-02-26T14:05:20;12.80;99.90
64939;DHT22;51453;47.738;7.420;2024-02-26T14:07:45;12.80;99.90
64939;DHT22;51453;47.738;7.420;2024-02-26T14:10:12;12.80;99.90
64939;DHT22;51453;47.738;7.420;2024-02-26T14:12:38;12.90;99.90
64939;DHT22;51453;47.738;7.420;2024-02-26T14:15:07;13.00;99.90
64939;DHT22;51453;47.738;7.420;2024-02-26T14:17:33;13.00;99.90
64939;DHT22;51453;47.738;7.420;2024-02-26T14:19:59;13.10;99.90
64939;DHT22;51453;47.738;7.420;2024-02-26T14:22:25;13.20;99.90
64939;DHT22;51453;47.738;7.420;2024-02-26T14:24:52;13.30;99.90
64939;DHT22;51453;47.738;7.420;2024-02-26T14:27:18;13.50;99.90
64939;DHT22;51453;47.738;7.420;2024-02-26T14:29:46;13.60;99.90
64939;DHT22;51453;47.738;7.420;2024-02-26T14:32:12;13.70;99.90
64939;DHT22;51453;47.738;7.420;2024-02-26T14:34:38;13.70;99.90
64939;DHT22;51453;47.738;7.420;2024-02-26T14:37:04;13.70;99.90
64939;DHT22;51453;47.738;7.420;2024-02-26T14:39:31;13.70;99.90
64939;DHT22;51453;47.738;7.420;2024-02-26T14:41:57;13.70;99.90
64939;DHT22;51453;47.738;7.420;2024-02-26T14:44:23;13.70;99.90
64939;DHT22;51453;47.738;7.420;2024-02-26T14:46:50;13.70;99.90
64939;DHT22;51453;47.738;7.420;2024-02-26T14:49:16;13.60;99.90
64939;DHT22;51453;47.738;7.420;2024-02-26T14:51:43;13.60;99.90
64939;DHT22;51453;47.738;7.420;2024-02-26T14:54:13;13.60;99.90
64939;DHT22;51453;47.738;7.420;2024-02-26T14:56:38;13.60;99.90
64939;DHT22;51453;47.738;7.420;2024-02-26T14:59:04;13.50;99.90
64939;DHT22;51453;47.738;7.420;2024-02-26T15:01:30;13.50;99.90
64939;DHT22;51453;47.738;7.420;2024-02-26T15:03:56;13.50;99.90
64939;DHT22;51453;47.738;7.420;2024-02-26T15:06:23;13.60;99.90
64939;DHT22;51453;47.738;7.420;2024-02-26T15:08:48;13.50;99.90
64939;DHT22;51453;47.738;7.420;2024-02-26T15:11:14;13.40;99.90
64939;DHT22;51453;47.738;7.420;2024-02-26T15:13:40;13.30;99.90
64939;DHT22;51453;47.738;7.420;2024-02-26T15:16:06;13.20;99.90
64939;DHT22;51453;47.738;7.420;2024-02-26T15:18:32;13.20;99.90
64939;DHT22;51453;47.738;7.420;2024-02-26T15:20:57;13.10;99.90
64939;DHT22;51453;47.738;7.420;2024-02-26T15:23:23;13.20;99.90
64939;DHT22;51453;47.738;7.420;2024-02-26T15:25:49;13.20;99.90
64939;DHT22;51453;47.738;7.420;2024-02-26T15:28:15;13.20;99.90
64939;DHT22;51453;47.738;7.420;2024-02-26T15:30:42;13.20;99.90
64939;DHT22;51453;47.738;7.420;2024-02-26T15:33:07;13.10;99.90
64939;DHT22;51453;47.738;7.420;2024-02-26T15:35:34;13.00;99.90
64939;DHT22;51453;47.738;7.420;2024-02-26T15:38:00;13.00;99.90
64939;DHT22;51453;47.738;7.420;2024-02-26T15:40:25;12.80;99.90
64939;DHT22;51453;47.738;7.420;2024-02-26T15:42:51;12.70;99.90
64939;DHT22;51453;47.738;7.420;2024-02-26T15:45:17;12.60;99.90